Time;durP1;ratioP1;P1;durP2;ratioP2;P2;SDS_P1;SDS_P2;PMS_P1;PMS_P2;Temp;Humidity;BMP_temperature;BMP_pressure;BME280_temperature;BME280_humidity;BME280_pressure;Samples;Min_cycle;Max_cycle;Signal;HPM_P1;HPM_P2
2023/07/07 00:03:11;;;;;;;2.72;1.80;;;21.40;97.20;;;20.36;84.47;100259.88;12322610;23;97269;-89
2023/07/07 00:08:15;;;;;;;2.42;1.88;;;21.40;97.30;;;20.25;84.37;100248.00;12344277;23;96640;-90
2023/07/07 00:13:20;;;;;;;2.92;1.70;;;21.30;97.30;;;20.29;84.30;100265.38;12343019;23;96538;-89
2023/07/07 00:18:26;;;;;;;3.05;2.17;;;21.30;97.40;;;20.27;84.46;100266.63;12343204;23;96683;-89
2023/07/07 00:23:38;;;;;;;3.97;1.98;;;21.20;97.50;;;20.18;85.22;100265.34;12346268;23;97106;-89
2023/07/07 00:28:42;;;;;;;;;;;21.20;97.70;;;20.11;86.55;100268.13;12343424;23;96662;-89
2023/07/07 00:33:45;;;;;;;4.38;2.20;;;21.10;98.30;;;19.98;86.38;100258.34;12366134;23;96924;-89
2023/07/07 00:38:51;;;;;;;3.28;2.50;;;21.00;98.00;;;20.00;86.35;100267.03;12320381;23;96546;-89
2023/07/07 00:44:11;;;;;;;3.47;2.33;;;21.00;98.20;;;19.98;86.85;100274.53;12346747;23;97406;-89
2023/07/07 00:49:21;;;;;;;3.17;2.17;;;21.00;98.30;;;19.96;86.92;100270.41;12320167;23;96940;-90
2023/07/07 00:54:29;;;;;;;3.75;2.40;;;21.00;98.70;;;19.89;87.44;100281.28;12344428;23;96842;-89
2023/07/07 00:59:39;;;;;;;2.60;1.90;;;20.90;98.60;;;19.85;88.00;100285.50;12340804;23;96723;-88
2023/07/07 01:04:48;;;;;;;2.95;1.90;;;20.80;98.80;;;19.78;88.14;100280.16;12338810;23;96507;-89
2023/07/07 01:09:53;;;;;;;4.70;2.47;;;20.80;99.00;;;19.74;88.69;100272.75;12366603;23;96449;-89
2023/07/07 01:14:57;;;;;;;3.25;2.05;;;20.70;99.20;;;19.69;89.25;100276.13;12344749;23;96514;-89
2023/07/07 01:20:31;;;;;;;3.22;2.20;;;20.70;99.40;;;19.60;90.05;100287.44;12342307;23;96505;-89
2023/07/07 01:25:58;;;;;;;3.30;2.00;;;20.60;99.60;;;19.52;90.06;100291.22;12367413;23;96790;-89
2023/07/07 01:31:17;;;;;;;5.00;2.20;;;20.50;99.80;;;19.35;89.21;100277.50;12365997;23;96312;-89
2023/07/07 01:36:21;;;;;;;2.50;1.90;;;20.50;99.80;;;19.32;89.54;100294.13;12344292;23;96956;-89
2023/07/07 01:41:55;;;;;;;2.78;2.05;;;20.40;99.90;;;19.28;90.05;100289.41;12343648;23;96419;-89
2023/07/07 01:47:25;;;;;;;3.22;2.05;;;20.30;99.90;;;19.20;90.28;100293.22;12365986;23;96964;-89
2023/07/07 01:52:32;;;;;;;3.17;2.10;;;20.20;99.90;;;19.05;91.17;100292.72;12344980;23;96577;-88
2023/07/07 01:57:39;;;;;;;3.13;2.08;;;20.10;99.90;;;18.99;91.50;100292.56;12368345;23;96431;-88
2023/07/07 02:02:43;;;;;;;2.95;2.10;;;20.00;99.90;;;18.85;91.79;100274.88;12342867;23;96807;-89
2023/07/07 02:07:47;;;;;;;4.50;2.10;;;19.90;99.90;;;18.82;92.43;100279.88;12344290;23;96771;-89
2023/07/07 02:12:51;;;;;;;3.10;2.28;;;19.90;99.90;;;18.75;92.94;100292.56;12320399;23;96574;-89
2023/07/07 02:17:56;;;;;;;2.92;2.15;;;19.80;99.90;;;18.65;93.07;100284.94;12342403;23;96648;-89
2023/07/07 02:22:59;;;;;;;3.65;2.10;;;19.70;99.90;;;18.61;92.96;100281.88;12341974;23;96511;-89
2023/07/07 02:28:03;;;;;;;5.53;3.08;;;19.70;99.90;;;18.56;93.70;100288.94;12320445;23;96408;-89
2023/07/07 02:33:08;;;;;;;4.80;2.92;;;19.60;99.90;;;18.53;94.50;100297.44;12341451;23;96389;-89
2023/07/07 02:38:12;;;;;;;4.00;2.55;;;19.60;99.90;;;18.51;94.70;100299.53;12343488;23;96593;-89
2023/07/07 02:43:16;;;;;;;3.53;2.50;;;19.50;99.90;;;18.43;95.07;100304.16;12343583;23;96433;-90
2023/07/07 02:48:21;;;;;;;4.32;2.40;;;19.50;99.90;;;18.36;95.18;100289.91;12318285;23;97232;-89
2023/07/07 02:53:31;;;;;;;3.83;2.50;;;19.50;99.90;;;18.34;94.98;100301.91;12342150;23;96499;-89
2023/07/07 02:58:35;;;;;;;3.20;1.90;;;19.40;99.90;;;18.22;95.11;100295.56;12344837;23;96426;-89
2023/07/07 03:03:45;;;;;;;3.38;2.15;;;19.30;99.90;;;18.19;94.97;100304.91;12341263;23;97050;-89
2023/07/07 03:08:49;;;;;;;;;;;19.30;99.90;;;18.12;94.42;100301.44;12343413;23;96462;-90
2023/07/07 03:13:52;;;;;;;3.25;2.00;;;19.20;99.90;;;18.16;92.49;100324.16;12365557;23;97054;-89
2023/07/07 03:19:00;;;;;;;3.92;2.20;;;19.20;99.90;;;18.09;91.73;100318.81;12342658;23;97259;-89
2023/07/07 03:24:04;;;;;;;2.90;2.22;;;19.20;99.90;;;18.10;91.05;100322.31;12322246;23;96408;-89
2023/07/07 03:29:07;;;;;;;5.03;2.00;;;19.20;99.90;;;18.13;90.63;100329.97;12338978;23;96544;-90
2023/07/07 03:34:11;;;;;;;4.63;2.47;;;19.20;99.90;;;18.11;89.37;100316.75;12346045;23;96594;-90
2023/07/07 03:39:15;;;;;;;4.20;2.83;;;19.20;99.90;;;18.16;89.81;100335.72;12319231;23;96654;-90
2023/07/07 03:44:18;;;;;;;3.97;2.58;;;19.20;99.90;;;18.07;88.61;100314.69;12341830;23;96584;-89
2023/07/07 03:49:22;;;;;;;4.03;2.22;;;19.20;99.90;;;18.13;87.64;100324.59;12340923;23;96783;-89
2023/07/07 03:54:25;;;;;;;7.22;2.95;;;19.20;99.90;;;18.14;87.05;100335.13;12340026;23;96657;-90
2023/07/07 03:59:29;;;;;;;5.07;2.25;;;19.30;99.90;;;18.19;86.36;100340.69;12341482;23;96443;-90
2023/07/07 04:04:32;;;;;;;3.00;2.13;;;19.30;99.90;;;18.18;86.87;100327.47;12337415;23;96802;-89
2023/07/07 04:09:37;;;;;;;5.80;2.17;;;19.30;99.90;;;18.28;86.63;100343.94;12343534;23;96489;-90
2023/07/07 04:14:40;;;;;;;4.18;2.30;;;19.40;99.90;;;18.28;86.41;100337.75;12343962;23;96807;-90
2023/07/07 04:19:44;;;;;;;2.97;2.08;;;19.40;99.90;;;18.36;87.13;100350.97;12344181;23;96463;-90
2023/07/07 04:25:08;;;;;;;3.05;2.10;;;19.50;99.90;;;18.37;86.63;100353.44;12344337;23;96574;-90
2023/07/07 04:30:12;;;;;;;4.75;2.50;;;19.50;99.90;;;18.55;84.95;100359.97;12342888;23;96500;-90
2023/07/07 04:35:16;;;;;;;3.20;2.00;;;19.60;99.90;;;18.75;83.74;100371.44;12320966;23;96920;-88
2023/07/07 04:40:20;;;;;;;4.85;2.30;;;19.80;99.90;;;18.96;81.42;100370.28;12344001;23;96807;-88
2023/07/07 04:45:23;;;;;;;5.88;2.13;;;20.00;99.80;;;19.20;79.63;100368.66;12340938;23;96694;-88
2023/07/07 04:50:28;;;;;;;5.45;2.20;;;20.20;99.30;;;19.39;76.53;100378.41;12341899;23;96688;-89
2023/07/07 04:55:31;;;;;;;6.70;2.50;;;20.40;98.60;;;19.53;73.63;100392.59;12320271;23;96578;-89
2023/07/07 05:00:35;;;;;;;3.80;2.65;;;20.50;97.60;;;19.66;74.47;100400.56;12368257;23;96314;-89
2023/07/07 05:05:39;;;;;;;5.22;2.15;;;20.60;97.60;;;19.78;74.27;100393.41;12321409;23;96561;-89
2023/07/07 05:10:47;;;;;;;4.15;2.20;;;20.80;97.30;;;19.87;73.53;100396.66;12367112;23;96753;-89
2023/07/07 05:16:09;;;;;;;4.43;2.58;;;20.90;97.00;;;20.00;73.42;100395.66;12344263;23;96493;-89
2023/07/07 05:21:17;;;;;;;5.07;2.42;;;21.00;96.70;;;20.14;72.27;100393.63;12344711;23;96870;-89
2023/07/07 05:26:22;;;;;;;3.65;2.05;;;21.20;96.30;;;20.30;70.62;100407.34;12343524;23;96464;-89
2023/07/07 05:31:26;;;;;;;5.00;2.70;;;21.30;95.90;;;20.44;70.11;100407.16;12344099;23;96434;-88
2023/07/07 05:36:30;;;;;;;5.32;2.40;;;21.50;95.30;;;20.50;68.30;100407.09;12343558;23;96508;-89
2023/07/07 05:41:33;;;;;;;6.53;3.17;;;21.50;94.90;;;20.57;65.82;100402.47;12343491;23;96533;-88
2023/07/07 05:46:37;;;;;;;5.40;3.10;;;21.60;94.30;;;20.55;65.52;100411.84;12353125;23;96783;-89
2023/07/07 05:51:41;;;;;;;4.82;1.88;;;21.60;94.30;;;20.55;65.41;100404.56;12351567;23;96512;-89
2023/07/07 05:56:44;;;;;;;4.93;3.22;;;21.60;94.20;;;20.66;65.12;100412.94;12343010;23;96511;-89
2023/07/07 06:01:47;;;;;;;5.40;2.80;;;21.70;93.50;;;20.84;62.44;100411.00;12343109;23;96629;-88
2023/07/07 06:06:52;;;;;;;7.35;2.83;;;21.90;92.50;;;20.98;61.82;100418.91;12318753;23;96713;-88
2023/07/07 06:11:55;;;;;;;4.82;2.88;;;22.00;92.00;;;21.15;60.15;100424.47;12343596;23;96469;-88
2023/07/07 06:16:59;;;;;;;5.50;2.88;;;22.20;91.00;;;21.32;59.74;100430.88;12342681;23;96591;-89
2023/07/07 06:22:02;;;;;;;5.25;3.08;;;22.30;90.60;;;21.57;58.63;100444.19;12343625;23;96945;-89
2023/07/07 06:27:06;;;;;;;4.55;2.90;;;22.60;89.60;;;21.69;58.12;100436.09;12365780;23;96452;-88
2023/07/07 06:32:10;;;;;;;4.63;3.08;;;22.70;88.80;;;21.71;55.77;100451.03;12342506;23;96485;-88
2023/07/07 06:37:14;;;;;;;5.10;2.83;;;22.80;87.10;;;21.65;57.54;100451.94;12364009;23;96438;-87
2023/07/07 06:42:18;;;;;;;7.20;3.10;;;22.70;86.70;;;21.46;56.99;100453.94;12343337;23;96440;-88
2023/07/07 06:47:22;;;;;;;6.28;2.58;;;22.60;86.30;;;21.42;58.78;100458.19;12343282;23;96519;-88
2023/07/07 06:52:25;;;;;;;6.10;2.90;;;22.50;87.20;;;21.44;59.33;100469.56;12343296;23;96531;-88
2023/07/07 06:57:30;;;;;;;5.65;2.63;;;22.50;87.50;;;21.57;58.84;100471.22;12367834;23;96531;-88
2023/07/07 07:02:34;;;;;;;5.63;2.40;;;22.70;87.80;;;21.89;58.47;100474.41;12341820;23;96799;-88
2023/07/07 07:07:37;;;;;;;4.47;2.42;;;23.00;87.30;;;22.13;58.41;100469.84;12317950;23;96540;-88
2023/07/07 07:12:41;;;;;;;6.45;2.38;;;23.20;86.60;;;22.28;58.26;100472.91;12344010;23;96432;-88
2023/07/07 07:17:45;;;;;;;5.80;2.90;;;23.40;86.10;;;22.41;57.21;100474.50;12342614;23;96391;-88
2023/07/07 07:22:49;;;;;;;6.45;2.47;;;23.60;85.50;;;22.59;58.76;100477.06;12342669;23;96883;-88
2023/07/07 07:27:53;;;;;;;5.60;2.55;;;23.70;86.10;;;22.68;55.39;100467.50;12341291;23;96524;-88
2023/07/07 07:32:58;;;;;;;5.15;2.50;;;23.90;84.30;;;22.85;52.75;100478.41;12318473;23;96849;-88
2023/07/07 07:38:03;;;;;;;5.57;2.50;;;24.00;82.10;;;22.94;52.43;100481.56;12342491;23;96458;-88
2023/07/07 07:43:09;;;;;;;4.72;2.47;;;24.10;81.00;;;23.12;52.03;100473.22;12319585;23;97100;-88
2023/07/07 07:48:13;;;;;;;5.95;2.55;;;24.30;79.80;;;23.36;50.58;100473.09;12345571;23;96848;-88
2023/07/07 07:53:18;;;;;;;5.75;3.15;;;24.50;78.30;;;23.62;48.81;100479.78;12345816;23;96502;-88
2023/07/07 07:58:21;;;;;;;6.05;2.50;;;24.70;76.60;;;23.80;47.31;100479.50;12345152;23;96478;-88
2023/07/07 08:03:25;;;;;;;3.92;2.40;;;24.90;75.00;;;23.91;45.93;100478.59;12344375;23;96431;-88
2023/07/07 08:08:29;;;;;;;6.30;2.42;;;25.10;72.30;;;24.21;45.24;100493.69;12322377;23;96476;-88
2023/07/07 08:13:33;;;;;;;5.68;2.50;;;25.30;71.60;;;24.25;44.13;100495.66;12344503;23;96522;-88
2023/07/07 08:18:43;;;;;;;3.55;1.88;;;25.40;69.90;;;24.28;45.13;100489.69;12320646;23;97082;-88
2023/07/07 08:23:46;;;;;;;4.30;2.67;;;25.40;70.10;;;24.35;42.89;100489.56;12314480;23;96505;-88
2023/07/07 08:28:50;;;;;;;5.35;2.85;;;25.50;68.20;;;24.43;42.21;100505.44;12344807;23;97193;-88
2023/07/07 08:33:53;;;;;;;4.18;2.50;;;25.60;67.10;;;24.50;43.82;100497.91;12321282;23;96453;-88
2023/07/07 08:39:14;;;;;;;3.50;2.33;;;25.60;67.40;;;24.67;43.85;100503.28;12344922;23;96868;-88
2023/07/07 08:44:23;;;;;;;2.80;1.98;;;25.80;67.80;;;24.70;44.08;100502.75;12346596;23;96736;-86
2023/07/07 08:49:50;;;;;;;4.10;2.00;;;25.80;67.50;;;24.76;43.09;100504.44;12343175;23;96901;-88
2023/07/07 08:55:33;;;;;;;4.72;2.90;;;25.90;67.40;;;24.99;41.08;100497.09;12345127;23;96495;-88
2023/07/07 09:01:13;;;;;;;4.53;2.30;;;26.10;65.50;;;25.15;40.82;100501.66;12347288;23;96691;-88
2023/07/07 09:06:37;;;;;;;3.72;2.38;;;26.20;65.00;;;25.36;41.37;100503.47;12344500;23;96434;-88
2023/07/07 09:11:59;;;;;;;3.58;2.20;;;26.40;64.70;;;25.46;40.11;100507.38;12367602;23;96483;-88
2023/07/07 09:17:16;;;;;;;3.72;2.30;;;26.60;62.80;;;25.58;39.30;100511.56;12368812;23;96524;-89
2023/07/07 09:23:04;;;;;;;4.75;2.38;;;26.70;62.80;;;25.63;39.26;100508.91;12345352;23;96473;-88
2023/07/07 09:28:12;;;;;;;3.97;2.85;;;26.80;62.60;;;25.72;39.29;100506.50;12331867;23;96663;-88
2023/07/07 09:33:20;;;;;;;4.45;2.40;;;26.90;61.50;;;25.97;38.50;100505.91;12344763;23;96461;-87
2023/07/07 09:39:11;;;;;;;3.85;2.40;;;27.10;60.70;;;26.12;39.46;100506.00;12345554;23;96575;-88
2023/07/07 09:44:49;;;;;;;4.57;2.85;;;27.30;60.60;;;26.38;38.77;100517.84;12368606;23;96411;-88
2023/07/07 09:50:11;;;;;;;4.20;2.38;;;27.50;60.20;;;26.54;37.81;100509.78;12369897;23;96568;-88
2023/07/07 09:55:36;;;;;;;4.43;2.33;;;27.60;59.60;;;26.65;36.45;100511.47;12344819;23;96568;-88
2023/07/07 10:00:54;;;;;;;4.70;2.25;;;27.80;58.30;;;26.62;36.34;100512.81;12345387;23;96791;-89
2023/07/07 10:06:03;;;;;;;4.93;3.10;;;27.80;58.30;;;26.51;36.01;100508.41;12343212;23;96406;-88
2023/07/07 10:11:28;;;;;;;5.55;2.78;;;27.70;56.90;;;26.37;36.32;100502.59;12344897;23;96544;-88
2023/07/07 10:16:50;;;;;;;4.32;2.63;;;27.60;57.30;;;26.48;36.63;100513.56;12344859;23;96415;-88
2023/07/07 10:21:55;;;;;;;4.63;2.63;;;27.60;57.10;;;26.68;35.80;100505.47;12346637;23;96464;-88
2023/07/07 10:26:59;;;;;;;4.38;2.38;;;27.80;57.20;;;26.83;35.45;100516.44;12343874;23;96462;-88
2023/07/07 10:32:03;;;;;;;6.43;2.50;;;28.10;56.50;;;26.97;36.78;100510.47;12320328;23;96486;-88
2023/07/07 10:37:21;;;;;;;4.50;2.75;;;28.20;56.70;;;26.98;36.17;100512.91;12351474;23;96389;-88
2023/07/07 10:42:27;;;;;;;5.13;2.47;;;28.20;56.00;;;27.12;36.50;100516.00;12368958;23;96455;-88
2023/07/07 10:47:35;;;;;;;7.47;2.45;;;28.30;56.20;;;27.25;36.36;100501.00;12320880;23;96497;-88
2023/07/07 10:53:12;;;;;;;4.65;2.60;;;28.40;56.20;;;27.25;35.42;100504.56;12343849;23;96496;-88
2023/07/07 10:59:10;;;;;;;4.65;2.60;;;28.50;55.80;;;27.36;36.10;100498.03;12353918;23;96426;-88
2023/07/07 11:04:34;;;;;;;5.03;2.60;;;28.50;55.80;;;27.60;35.88;100498.31;12381824;23;96451;-87
2023/07/07 11:09:51;;;;;;;2.97;2.20;;;28.70;56.20;;;27.81;35.73;100488.19;12371065;23;96789;-87
2023/07/07 11:15:27;;;;;;;4.35;2.50;;;29.00;56.10;;;27.99;36.63;100490.34;12347517;23;96492;-88
2023/07/07 11:20:39;;;;;;;3.72;2.50;;;29.20;56.20;;;28.18;34.91;100495.22;12372711;23;96403;-88
2023/07/07 11:26:23;;;;;;;5.20;3.17;;;29.40;55.10;;;28.05;35.12;100487.63;12373963;23;96889;-87
2023/07/07 11:32:01;;;;;;;4.13;2.38;;;29.30;54.50;;;28.19;35.27;100485.97;12373752;23;96392;-87
2023/07/07 11:37:21;;;;;;;4.00;2.75;;;29.40;55.00;;;28.11;34.49;100486.50;12374552;23;96446;-87
2023/07/07 11:42:33;;;;;;;4.60;2.40;;;29.30;54.60;;;28.21;33.50;100472.81;12349564;23;96875;-88
2023/07/07 11:47:49;;;;;;;3.75;2.60;;;29.40;53.50;;;28.23;34.12;100478.81;12373610;23;99380;-87
2023/07/07 11:53:30;;;;;;;5.72;2.75;;;29.40;53.70;;;28.08;34.48;100476.16;12347732;23;96469;-88
2023/07/07 11:58:42;;;;;;;6.68;2.45;;;29.30;53.70;;;28.31;34.11;100475.53;12352695;23;96474;-87
2023/07/07 12:03:55;;;;;;;3.63;2.40;;;29.40;53.80;;;28.27;33.36;100483.47;12347726;23;96897;-88
2023/07/07 12:09:16;;;;;;;4.97;2.38;;;29.50;52.80;;;28.15;33.85;100480.22;12349914;23;96372;-88
2023/07/07 12:14:47;;;;;;;4.75;2.97;;;29.50;52.80;;;28.17;32.51;100471.72;12348026;23;97187;-88
2023/07/07 12:20:04;;;;;;;6.43;2.70;;;29.50;52.00;;;28.20;33.03;100463.00;12348962;23;96714;-87
2023/07/07 12:25:26;;;;;;;4.15;3.00;;;29.70;52.00;;;28.38;31.74;100454.22;12347325;23;96453;-88
2023/07/07 12:30:36;;;;;;;3.92;2.70;;;30.00;51.20;;;28.52;29.37;100455.22;12322572;23;96410;-88
2023/07/07 12:35:58;;;;;;;4.85;2.63;;;30.60;48.70;;;28.96;30.19;100448.16;12344510;23;96827;-87
2023/07/07 12:41:10;;;;;;;3.90;2.20;;;31.30;48.70;;;29.71;29.93;100445.13;12343772;23;96578;-86
2023/07/07 12:46:30;;;;;;;5.15;2.85;;;32.20;48.90;;;30.30;28.38;100432.97;12341738;23;96590;-87
2023/07/07 12:51:37;;;;;;;4.03;2.38;;;32.40;47.70;;;30.89;27.98;100437.13;12343114;23;96459;-88
2023/07/07 12:57:19;;;;;;;5.60;2.33;;;32.60;48.00;;;30.99;26.57;100428.72;12342915;23;96587;-88
2023/07/07 13:02:25;;;;;;;7.97;2.85;;;32.60;45.30;;;30.95;27.57;100438.69;12348004;23;96395;-88
2023/07/07 13:07:34;;;;;;;4.03;2.67;;;32.30;46.40;;;30.49;27.21;100436.56;12320404;23;96441;-89
2023/07/07 13:12:37;;;;;;;4.00;2.47;;;32.20;45.80;;;29.80;28.30;100444.19;12343957;23;96581;-88
2023/07/07 13:17:42;;;;;;;4.85;2.38;;;31.70;45.60;;;29.64;29.19;100441.91;12343243;23;96521;-88
2023/07/07 13:22:51;;;;;;;4.00;2.60;;;31.40;46.70;;;29.87;29.45;100441.13;12345397;23;96480;-87
2023/07/07 13:27:55;;;;;;;;;;;31.80;46.90;;;30.26;27.49;100432.75;12342801;23;96604;-87
2023/07/07 13:33:03;;;;;;;3.55;1.80;;;32.20;46.30;;;30.19;28.44;100440.50;12368643;23;98090;-85
2023/07/07 13:38:16;;;;;;;3.35;2.00;;;32.20;45.80;;;30.61;27.57;100434.19;12343320;23;97016;-87
2023/07/07 13:43:48;;;;;;;3.47;2.05;;;32.30;46.20;;;30.93;27.00;100421.69;12345036;23;97339;-87
2023/07/07 13:48:57;;;;;;;5.38;2.63;;;32.40;45.70;;;31.31;26.74;100425.22;12345020;23;97028;-88
2023/07/07 13:54:04;;;;;;;3.47;2.30;;;32.50;45.70;;;31.37;26.87;100429.53;12343438;23;96547;-88
2023/07/07 13:59:30;;;;;;;3.30;2.40;;;32.20;45.50;;;31.25;25.22;100422.84;12343262;23;96469;-88
2023/07/07 14:04:38;;;;;;;3.80;2.30;;;32.00;45.00;;;31.05;26.79;100416.56;12342964;23;96500;-88
2023/07/07 14:09:46;;;;;;;6.53;2.20;;;31.90;45.50;;;30.89;26.08;100420.66;12321164;23;96705;-88
2023/07/07 14:14:54;;;;;;;4.97;3.00;;;31.80;44.90;;;30.69;27.21;100430.00;12344395;23;96644;-88
2023/07/07 14:19:58;;;;;;;2.75;1.90;;;31.70;45.50;;;30.67;27.75;100436.88;12343840;23;96646;-88
2023/07/07 14:25:05;;;;;;;2.65;1.92;;;31.70;45.70;;;30.73;27.65;100431.03;12367668;23;96420;-88
2023/07/07 14:30:23;;;;;;;3.30;2.30;;;31.70;45.90;;;30.94;27.94;100420.56;12342488;23;96610;-88
2023/07/07 14:35:32;;;;;;;7.18;2.10;;;31.90;46.20;;;30.99;27.95;100411.44;12343383;23;96417;-88
2023/07/07 14:40:44;;;;;;;3.13;2.20;;;32.10;46.00;;;31.09;28.76;100423.09;12368254;23;96418;-87
2023/07/07 14:46:01;;;;;;;4.53;2.22;;;32.30;46.70;;;31.18;28.82;100426.75;12343868;23;96566;-88
2023/07/07 14:51:09;;;;;;;4.65;2.25;;;32.60;46.50;;;31.19;27.39;100430.34;12345423;23;96444;-87
2023/07/07 14:56:27;;;;;;;4.40;2.33;;;33.10;45.60;;;31.46;26.64;100429.63;12343389;23;96422;-85
2023/07/07 15:01:32;;;;;;;3.40;2.10;;;33.40;44.80;;;31.85;27.28;100428.41;12344418;23;96430;-85
2023/07/07 15:06:42;;;;;;;4.07;2.35;;;33.80;45.30;;;32.01;27.48;100429.72;12344561;23;96529;-85
2023/07/07 15:11:45;;;;;;;3.67;2.67;;;34.00;45.40;;;32.15;26.67;100424.25;12344790;23;96464;-85
2023/07/07 15:16:49;;;;;;;4.25;2.50;;;34.20;44.40;;;32.40;25.77;100420.16;12343152;23;96378;-85
2023/07/07 15:21:53;;;;;;;4.45;2.50;;;34.10;44.10;;;32.03;26.12;100424.75;12318652;23;96538;-85
2023/07/07 15:26:57;;;;;;;3.83;2.40;;;33.80;43.70;;;32.09;26.97;100418.03;12342501;23;96410;-85
2023/07/07 15:32:11;;;;;;;3.28;2.20;;;33.70;44.30;;;32.14;26.65;100412.41;12343118;23;96561;-85
2023/07/07 15:37:15;;;;;;;3.33;2.20;;;33.90;44.30;;;32.22;26.41;100417.19;12342996;23;96448;-85
2023/07/07 15:42:20;;;;;;;4.40;2.25;;;34.20;44.10;;;32.41;27.17;100413.53;12319679;23;96500;-85
2023/07/07 15:47:24;;;;;;;4.78;2.05;;;34.40;44.40;;;32.78;26.60;100415.16;12342352;23;96602;-88
2023/07/07 15:52:27;;;;;;;4.13;2.35;;;34.60;45.00;;;33.13;26.39;100407.22;12342151;23;96503;-85
2023/07/07 15:57:31;;;;;;;5.57;2.45;;;34.90;44.30;;;33.37;26.42;100410.44;12343638;23;96336;-85
2023/07/07 16:02:35;;;;;;;3.00;2.28;;;35.00;44.40;;;33.22;25.42;100405.31;12345243;23;96449;-85
2023/07/07 16:07:38;;;;;;;3.35;2.30;;;34.70;43.30;;;33.00;25.21;100408.91;12345117;23;96473;-86
2023/07/07 16:12:42;;;;;;;2.45;2.00;;;34.40;43.70;;;33.00;26.11;100419.91;12343816;23;96563;-86
2023/07/07 16:17:46;;;;;;;4.25;2.35;;;34.20;44.30;;;32.61;25.92;100410.31;12344809;23;96610;-85
2023/07/07 16:22:53;;;;;;;3.88;2.20;;;33.70;44.00;;;32.20;27.28;100418.59;12344133;23;96394;-85
2023/07/07 16:27:56;;;;;;;4.10;2.20;;;33.10;44.90;;;32.03;27.00;100415.66;12342221;23;96984;-86
2023/07/07 16:33:00;;;;;;;3.30;2.28;;;32.80;45.10;;;31.79;27.57;100416.69;12344288;23;96556;-86
2023/07/07 16:38:10;;;;;;;3.38;2.40;;;32.60;45.30;;;31.15;27.55;100435.59;12318312;23;96612;-86
2023/07/07 16:43:14;;;;;;;4.28;2.30;;;32.10;45.20;;;30.68;28.70;100433.00;12343469;23;96528;-85
2023/07/07 16:48:17;;;;;;;3.65;2.47;;;31.70;45.70;;;30.48;28.50;100429.44;12342320;23;96626;-85
2023/07/07 16:53:21;;;;;;;4.85;2.58;;;31.30;45.60;;;30.29;29.67;100436.84;12366479;23;96914;-85
2023/07/07 16:58:25;;;;;;;4.18;2.38;;;31.30;46.90;;;30.31;30.98;100434.59;12367053;23;96545;-85
2023/07/07 17:03:28;;;;;;;3.03;2.08;;;31.40;47.70;;;30.26;31.59;100427.25;12341973;23;96358;-85
2023/07/07 17:08:32;;;;;;;5.32;2.10;;;31.40;48.10;;;29.98;32.22;100426.19;12343616;23;96760;-85
2023/07/07 17:13:36;;;;;;;4.40;2.25;;;31.20;48.60;;;29.68;32.54;100432.81;12319348;23;97455;-88
2023/07/07 17:18:39;;;;;;;2.58;1.90;;;30.90;49.10;;;29.28;33.18;100439.47;12343063;23;96724;-85
2023/07/07 17:23:44;;;;;;;4.13;2.20;;;30.50;49.40;;;28.79;34.11;100446.63;12342900;23;97006;-85
2023/07/07 17:28:47;;;;;;;4.55;2.15;;;30.00;50.40;;;28.43;35.35;100451.47;12342314;23;96572;-85
2023/07/07 17:33:54;;;;;;;5.35;2.45;;;29.60;50.90;;;28.05;35.51;100452.09;12324553;23;96632;-85
2023/07/07 17:38:59;;;;;;;6.30;2.17;;;29.20;51.50;;;27.63;36.73;100447.78;12349619;23;96688;-85
2023/07/07 17:44:03;;;;;;;4.60;2.20;;;28.70;52.20;;;27.34;37.36;100459.25;12342630;23;96606;-85
2023/07/07 17:49:20;;;;;;;5.53;2.45;;;28.40;52.60;;;27.04;38.11;100464.66;12350388;23;96950;-85
2023/07/07 17:54:24;;;;;;;4.97;2.08;;;28.10;53.00;;;26.88;38.60;100466.56;12319800;23;96532;-85
2023/07/07 17:59:28;;;;;;;4.45;1.67;;;27.90;53.40;;;26.72;38.73;100471.13;12366651;23;96422;-85
2023/07/07 18:04:31;;;;;;;3.50;1.90;;;27.80;54.00;;;26.57;39.55;100480.09;12341943;23;96397;-85
2023/07/07 18:09:35;;;;;;;3.40;1.70;;;27.60;54.30;;;26.39;40.35;100488.72;12318763;23;96644;-87
2023/07/07 18:14:38;;;;;;;6.22;1.70;;;27.50;54.60;;;26.19;41.66;100489.41;12343701;23;96588;-85
2023/07/07 18:19:42;;;;;;;3.95;2.28;;;27.20;55.70;;;25.99;42.46;100492.84;12343062;23;96459;-85
2023/07/07 18:25:07;;;;;;;4.43;2.10;;;27.00;56.80;;;25.71;43.63;100499.41;12346255;23;97240;-85
2023/07/07 18:30:56;;;;;;;3.92;2.20;;;26.70;57.80;;;25.29;44.97;100497.44;12342948;23;96472;-85
2023/07/07 18:36:00;;;;;;;3.25;1.80;;;26.30;58.60;;;25.09;45.69;100506.22;12346234;23;96709;-85
2023/07/07 18:41:15;;;;;;;4.13;2.03;;;26.10;59.50;;;24.83;46.78;100505.09;12342516;23;96536;-85
2023/07/07 18:46:24;;;;;;;4.55;1.95;;;25.90;60.50;;;24.72;47.75;100519.66;12341427;23;96590;-88
2023/07/07 18:51:28;;;;;;;3.00;1.90;;;25.60;61.20;;;24.49;48.35;100534.28;12346794;23;96887;-87
2023/07/07 18:56:34;;;;;;;5.15;2.20;;;25.40;61.90;;;24.16;49.29;100528.91;12343327;23;96393;-86
2023/07/07 19:01:38;;;;;;;6.35;2.55;;;25.10;62.90;;;23.90;50.79;100539.38;12367729;23;96758;-87
2023/07/07 19:06:44;;;;;;;6.60;2.60;;;24.80;63.80;;;23.72;51.51;100548.59;12341347;23;96608;-87
2023/07/07 19:11:52;;;;;;;3.88;2.25;;;24.60;64.90;;;23.57;52.70;100561.88;12340791;23;96441;-87
2023/07/07 19:16:57;;;;;;;3.40;2.20;;;24.40;65.70;;;23.39;52.44;100575.63;12341561;23;96528;-88
2023/07/07 19:22:00;;;;;;;4.05;2.50;;;24.20;65.80;;;23.18;52.41;100572.53;12342027;23;96466;-90
2023/07/07 19:27:04;;;;;;;5.57;2.53;;;24.00;65.90;;;22.99;52.33;100581.09;12318227;23;96903;-89
2023/07/07 19:32:15;;;;;;;4.28;2.00;;;23.90;66.10;;;22.83;52.77;100583.47;12342289;23;96566;-90
2023/07/07 19:37:19;;;;;;;5.38;1.95;;;23.80;66.40;;;22.73;53.69;100593.25;12342276;23;96427;-90
2023/07/07 19:42:23;;;;;;;3.92;2.50;;;23.70;66.80;;;22.53;54.35;100593.66;12344716;23;96587;-88
2023/07/07 19:47:26;;;;;;;5.88;1.92;;;23.40;67.40;;;22.27;55.62;100584.13;12321203;23;96750;-87
2023/07/07 19:52:30;;;;;;;4.22;2.30;;;23.20;68.50;;;22.12;56.57;100598.94;12344644;23;96424;-89
2023/07/07 19:57:37;;;;;;;3.55;2.15;;;23.00;69.20;;;21.97;56.89;100597.72;12322684;23;96573;-88
2023/07/07 20:02:41;;;;;;;5.82;2.30;;;22.80;69.70;;;21.82;57.62;100596.28;12345346;23;97558;-88
2023/07/07 20:07:45;;;;;;;3.80;2.15;;;22.70;70.30;;;21.67;57.77;100600.47;12344278;23;96543;-88
2023/07/07 20:12:49;;;;;;;4.15;2.30;;;22.60;70.60;;;21.57;57.33;100603.72;12322594;23;96644;-88
2023/07/07 20:17:53;;;;;;;5.47;2.10;;;22.40;70.40;;;21.43;56.89;100608.50;12342363;23;96804;-88
2023/07/07 20:22:58;;;;;;;3.80;1.90;;;22.40;70.20;;;21.37;57.48;100620.25;12344357;23;96573;-88
2023/07/07 20:28:01;;;;;;;3.33;2.00;;;22.30;70.70;;;21.23;58.37;100616.88;12343348;23;97045;-88
2023/07/07 20:33:11;;;;;;;3.40;2.47;;;22.20;71.20;;;21.11;59.00;100626.75;12343495;23;96526;-88
2023/07/07 20:38:15;;;;;;;4.25;1.70;;;22.10;71.70;;;21.01;59.50;100629.19;12343875;23;96514;-88
2023/07/07 20:43:18;;;;;;;3.50;2.15;;;22.00;72.20;;;20.91;60.21;100637.81;12369498;23;96494;-88
2023/07/07 20:48:22;;;;;;;5.95;2.13;;;21.80;72.60;;;20.74;60.85;100636.75;12365686;23;96845;-88
2023/07/07 20:53:26;;;;;;;3.53;2.20;;;21.70;73.30;;;20.64;61.14;100655.38;12343406;23;96800;-85
2023/07/07 20:58:30;;;;;;;3.97;2.05;;;21.50;73.50;;;20.52;60.82;100648.00;12367140;23;96421;-88
2023/07/07 21:03:33;;;;;;;3.65;2.10;;;21.50;73.80;;;20.44;60.95;100659.03;12344855;23;96440;-87
2023/07/07 21:08:37;;;;;;;5.03;2.28;;;21.40;73.80;;;20.36;61.47;100664.72;12344128;23;96445;-88
2023/07/07 21:13:41;;;;;;;3.60;2.10;;;21.30;74.20;;;20.24;60.96;100664.59;12343742;23;96381;-86
2023/07/07 21:18:44;;;;;;;5.13;2.20;;;21.10;74.10;;;20.14;60.83;100669.66;12319437;23;96552;-87